Time;durP1;ratioP1;P1;durP2;ratioP2;P2;SDS_P1;SDS_P2;PMS_P1;PMS_P2;Temp;Humidity;BMP_temperature;BMP_pressure;BME280_temperature;BME280_humidity;BME280_pressure;Samples;Min_cycle;Max_cycle;Signal;HPM_P1;HPM_P2
2021/11/02 00:01:50;;;;;;;4.00;3.70;;;;;;;5.45;100.00;96689.31;5051583;28;20349;-68
2021/11/02 00:04:18;;;;;;;3.90;3.60;;;;;;;5.43;100.00;96686.03;5038369;28;20886;-67
2021/11/02 00:06:46;;;;;;;3.37;3.20;;;;;;;5.39;100.00;96689.97;5049299;28;20211;-67
2021/11/02 00:09:21;;;;;;;3.97;3.77;;;;;;;5.34;100.00;96679.97;5049779;28;20207;-69
2021/11/02 00:11:50;;;;;;;3.90;3.60;;;;;;;5.32;100.00;96684.59;4968488;28;20717;-68
2021/11/02 00:14:21;;;;;;;3.40;3.20;;;;;;;5.35;100.00;96678.16;5049924;28;20205;-68
2021/11/02 00:16:55;;;;;;;4.20;3.80;;;;;;;5.30;100.00;96681.28;5040857;28;20211;-68
2021/11/02 00:19:25;;;;;;;4.17;3.83;;;;;;;5.28;100.00;96685.06;5051188;28;20211;-68
2021/11/02 00:21:55;;;;;;;3.90;3.50;;;;;;;5.22;100.00;96682.09;5040620;28;20238;-68
2021/11/02 00:24:39;;;;;;;4.37;4.03;;;;;;;5.21;100.00;96682.25;5051059;28;20218;-69
2021/11/02 00:27:07;;;;;;;4.27;3.87;;;;;;;5.13;100.00;96677.00;5019285;28;20229;-69
2021/11/02 00:29:37;;;;;;;3.70;3.40;;;;;;;5.10;100.00;96679.94;5047516;28;20207;-66
2021/11/02 00:32:05;;;;;;;4.03;3.63;;;;;;;5.08;100.00;96677.47;5054451;28;20223;-69
2021/11/02 00:34:33;;;;;;;3.23;3.10;;;;;;;5.09;100.00;96689.63;5047870;28;20334;-69
2021/11/02 00:37:01;;;;;;;3.30;3.10;;;;;;;5.00;100.00;96690.59;5027383;28;20214;-68
2021/11/02 00:39:29;;;;;;;3.07;2.87;;;;;;;4.92;100.00;96689.59;5045366;28;20210;-68
2021/11/02 00:41:57;;;;;;;3.87;3.63;;;;;;;4.86;100.00;96687.59;5052684;28;20525;-69
2021/11/02 00:44:25;;;;;;;3.53;3.33;;;;;;;4.81;100.00;96683.81;5015194;28;20698;-67
2021/11/02 00:46:56;;;;;;;4.17;3.20;;;;;;;4.78;100.00;96682.34;5052627;28;20594;-68
2021/11/02 00:49:25;;;;;;;3.53;3.33;;;;;;;4.72;100.00;96683.78;5050155;28;20602;-67
2021/11/02 00:51:54;;;;;;;3.40;3.20;;;;;;;4.69;100.00;96685.91;5052815;28;20233;-68
2021/11/02 00:54:22;;;;;;;4.63;4.23;;;;;;;4.66;100.00;96688.84;5039477;28;20211;-68
2021/11/02 00:56:50;;;;;;;4.23;3.93;;;;;;;4.57;100.00;96680.94;5050618;28;20214;-67
2021/11/02 00:59:18;;;;;;;3.90;3.60;;;;;;;4.51;100.00;96683.38;5018326;28;20632;-68
2021/11/02 01:01:47;;;;;;;5.17;4.43;;;;;;;4.55;100.00;96680.28;5049580;28;20360;-66
2021/11/02 01:04:16;;;;;;;3.77;3.47;;;;;;;4.61;100.00;96682.28;5050850;28;20611;-68
2021/11/02 01:06:44;;;;;;;3.60;3.40;;;;;;;4.51;100.00;96684.22;5048707;28;20340;-68
2021/11/02 01:09:12;;;;;;;4.40;4.00;;;;;;;4.38;100.00;96670.72;5038809;28;20648;-67
2021/11/02 01:11:41;;;;;;;4.70;4.30;;;;;;;4.34;100.00;96675.44;5049442;28;20883;-68
2021/11/02 01:14:10;;;;;;;4.37;4.10;;;;;;;4.42;100.00;96669.41;5047510;28;20203;-68
2021/11/02 01:16:38;;;;;;;4.07;3.80;;;;;;;4.32;100.00;96670.34;5025590;28;20582;-68
2021/11/02 01:19:06;;;;;;;5.97;5.47;;;;;;;4.28;100.00;96666.41;5052448;28;20260;-68
2021/11/02 01:21:35;;;;;;;4.77;4.40;;;;;;;4.28;100.00;96669.00;5046507;28;20257;-68
2021/11/02 01:24:04;;;;;;;4.60;4.20;;;;;;;4.11;100.00;96665.50;5040815;28;20245;-68
2021/11/02 01:26:32;;;;;;;4.93;4.43;;;;;;;3.99;100.00;96662.34;5046934;28;20341;-67
2021/11/02 01:29:00;;;;;;;4.97;4.57;;;;;;;3.91;100.00;96664.88;5048447;28;20506;-68
2021/11/02 01:31:28;;;;;;;4.73;4.33;;;;;;;3.82;100.00;96660.56;5017298;28;20234;-67
2021/11/02 01:33:57;;;;;;;4.43;4.13;;;;;;;3.77;100.00;96655.78;5052663;28;20330;-68
2021/11/02 01:36:25;;;;;;;4.33;3.93;;;;;;;3.74;100.00;96661.34;5048463;28;20214;-68
2021/11/02 01:38:59;;;;;;;4.53;4.23;;;;;;;3.71;100.00;96664.25;5040800;28;20431;-68
2021/11/02 01:41:28;;;;;;;3.90;3.70;;;;;;;3.62;100.00;96666.03;5047783;28;20721;-68
2021/11/02 01:43:57;;;;;;;3.97;3.67;;;;;;;3.53;100.00;96666.91;5052491;28;20574;-68
2021/11/02 01:46:27;;;;;;;6.40;4.33;;;;;;;3.46;100.00;96659.69;5014100;28;20215;-69
2021/11/02 01:49:01;;;;;;;4.17;3.87;;;;;;;3.45;100.00;96667.69;5052563;28;20434;-68
2021/11/02 01:51:30;;;;;;;3.60;3.40;;;;;;;3.40;100.00;96670.75;5048080;28;20241;-69
2021/11/02 01:54:01;;;;;;;4.03;3.80;;;;;;;3.32;100.00;96673.31;5051863;28;20211;-67
2021/11/02 01:56:29;;;;;;;3.53;3.27;;;;;;;3.26;100.00;96674.72;5047229;28;20328;-67
2021/11/02 01:58:57;;;;;;;4.73;4.37;;;;;;;3.23;100.00;96671.59;5054092;28;20203;-67
2021/11/02 02:01:31;;;;;;;4.70;4.40;;;;;;;3.17;100.00;96673.81;5020855;28;20998;-68
2021/11/02 02:04:09;;;;;;;4.73;4.33;;;;;;;3.12;100.00;96673.47;5050208;28;20279;-66
2021/11/02 02:06:44;;;;;;;4.53;4.17;;;;;;;3.09;100.00;96670.34;5048876;28;20211;-69
2021/11/02 02:09:20;;;;;;;5.00;4.60;;;;;;;3.08;100.00;96664.25;5051819;28;20210;-68
2021/11/02 02:11:55;;;;;;;4.73;4.43;;;;;;;3.06;100.00;96670.63;5043665;28;20238;-67
2021/11/02 02:14:30;;;;;;;4.07;3.70;;;;;;;2.98;100.00;96663.53;5049478;28;20214;-69
2021/11/02 02:16:59;;;;;;;4.90;4.60;;;;;;;2.96;100.00;96665.47;5012025;28;20226;-67
2021/11/02 02:19:36;;;;;;;4.43;4.13;;;;;;;2.88;100.00;96658.34;5016718;28;20207;-67
2021/11/02 02:22:16;;;;;;;3.80;3.50;;;;;;;2.88;100.00;96653.94;5039343;28;20222;-67
2021/11/02 02:24:58;;;;;;;3.73;3.43;;;;;;;2.85;100.00;96653.41;5044822;28;20262;-68
2021/11/02 02:27:34;;;;;;;4.60;4.20;;;;;;;2.75;100.00;96653.47;5042622;28;20211;-68
2021/11/02 02:30:07;;;;;;;4.13;3.83;;;;;;;2.68;100.00;96649.81;5038886;28;20249;-66
2021/11/02 02:32:37;;;;;;;3.80;3.60;;;;;;;2.61;100.00;96649.56;5049765;28;20230;-68
2021/11/02 02:35:08;;;;;;;4.80;4.30;;;;;;;2.62;100.00;96650.41;5025093;28;20217;-67
2021/11/02 02:37:37;;;;;;;4.07;3.73;;;;;;;2.55;100.00;96639.69;5051083;28;20220;-67
2021/11/02 02:40:07;;;;;;;4.47;4.17;;;;;;;2.51;100.00;96639.19;5051727;28;20648;-68
2021/11/02 02:42:37;;;;;;;4.70;4.30;;;;;;;2.50;100.00;96632.31;5042792;28;20233;-68
2021/11/02 02:45:07;;;;;;;4.73;4.33;;;;;;;2.46;100.00;96631.75;5052567;28;20211;-68
2021/11/02 02:47:36;;;;;;;4.97;4.57;;;;;;;2.43;100.00;96645.13;5041451;28;20215;-67
2021/11/02 02:50:06;;;;;;;4.20;3.90;;;;;;;2.35;100.00;96644.19;5053039;28;20206;-68
2021/11/02 02:52:34;;;;;;;4.30;3.90;;;;;;;2.34;100.00;96635.56;5021564;28;20239;-67
2021/11/02 02:55:03;;;;;;;6.83;4.23;;;;;;;2.29;100.00;96641.19;5056148;28;20226;-67
2021/11/02 02:57:32;;;;;;;4.30;4.00;;;;;;;2.31;100.00;96646.31;5040191;28;20195;-67
2021/11/02 03:00:00;;;;;;;7.47;4.30;;;;;;;2.33;100.00;96646.97;5052274;28;20236;-69
2021/11/02 03:02:31;;;;;;;4.57;4.27;;;;;;;2.31;100.00;96652.34;5040032;28;20234;-68
2021/11/02 03:05:01;;;;;;;4.33;3.93;;;;;;;2.24;100.00;96647.81;5053481;28;20544;-68
2021/11/02 03:07:29;;;;;;;4.07;3.77;;;;;;;2.22;100.00;96641.91;5017646;28;20367;-67
2021/11/02 03:09:58;;;;;;;4.70;4.30;;;;;;;2.25;100.00;96642.47;5053376;28;20210;-68
2021/11/02 03:12:28;;;;;;;5.57;3.60;;;;;;;2.22;100.00;96640.16;5045848;28;20226;-68
2021/11/02 03:15:10;;;;;;;6.50;4.13;;;;;;;2.15;100.00;96646.91;5052246;28;20291;-68
2021/11/02 03:17:46;;;;;;;4.30;4.00;;;;;;;2.13;100.00;96643.63;5034401;28;20266;-68
2021/11/02 03:20:45;;;;;;;4.17;3.87;;;;;;;2.12;100.00;96637.56;5050508;28;20203;-68
2021/11/02 03:48:31;;;;;;;4.40;4.10;;;;;;;2.12;100.00;96637.56;5038901;28;20222;-64
2021/11/02 03:51:12;;;;;;;5.57;5.00;;;;;;;2.18;100.00;96641.41;5051445;28;20312;-65
2021/11/02 03:56:39;;;;;;;5.40;5.00;;;;;;;2.05;100.00;96646.94;5014229;28;20211;-69
2021/11/02 03:59:31;;;;;;;5.27;4.77;;;;;;;2.05;100.00;96638.28;5046790;28;20219;-70
2021/11/02 04:47:04;;;;;;;9.73;7.70;;;;;;;3.26;100.00;96666.06;5049768;28;20207;-70
2021/11/02 05:09:15;;;;;;;9.17;8.27;;;;;;;3.40;100.00;96664.69;5039315;28;20377;-69
2021/11/02 05:12:24;;;;;;;8.07;7.23;;;;;;;3.42;100.00;96657.53;5019093;28;20627;-68
2021/11/02 05:46:36;;;;;;;8.83;7.93;;;;;;;3.63;100.00;96672.91;5032147;28;20339;-70
2021/11/02 05:48:37;;;;;;;9.00;8.03;;;;;;;3.76;100.00;96682.97;5048737;28;20211;-67
2021/11/02 05:56:57;;;;;;;10.13;8.70;;;;;;;3.80;100.00;96681.72;5026031;28;20231;-70
2021/11/02 05:59:33;;;;;;;9.30;8.50;;;;;;;3.87;100.00;96687.97;5015669;28;20317;-66
2021/11/02 06:02:15;;;;;;;9.60;8.57;;;;;;;3.89;100.00;96677.31;5045293;28;20234;-69
2021/11/02 06:07:44;;;;;;;8.90;8.00;;;;;;;3.82;100.00;96674.50;5035948;28;20234;-69
2021/11/02 06:10:43;;;;;;;10.30;9.30;;;;;;;3.87;100.00;96680.13;5049313;28;20533;-68
2021/11/02 06:30:08;;;;;;;9.70;8.80;;;;;;;4.05;100.00;96684.47;5016636;28;20471;-67
2021/11/02 06:32:38;;;;;;;8.77;8.07;;;;;;;4.04;100.00;96680.19;5013730;28;20994;-70
2021/11/02 06:35:15;;;;;;;8.80;8.00;;;;;;;4.01;100.00;96681.34;5036873;28;20215;-67
2021/11/02 06:38:00;;;;;;;9.10;8.20;;;;;;;4.03;100.00;96684.63;5052202;28;20210;-69
2021/11/02 06:48:58;;;;;;;9.00;8.07;;;;;;;4.35;100.00;96672.66;4988755;28;20634;-68
2021/11/02 06:51:54;;;;;;;10.83;7.43;;;;;;;4.43;100.00;96677.13;5051402;28;20218;-68
2021/11/02 07:00:29;;;;;;;11.30;10.27;;;;;;;4.58;100.00;96687.84;5011974;28;20206;-67
2021/11/02 07:17:24;;;;;;;6.57;5.97;;;;;;;4.96;100.00;96673.50;5036769;28;20389;-69
2021/11/02 07:20:15;;;;;;;10.67;6.00;;;;;;;4.92;100.00;96678.25;5016016;28;20395;-69
2021/11/02 07:22:58;;;;;;;5.93;5.43;;;;;;;4.90;100.00;96681.06;5052175;28;20237;-69
2021/11/02 07:25:38;;;;;;;5.70;5.20;;;;;;;5.03;100.00;96680.59;5054052;28;20629;-69
2021/11/02 07:28:26;;;;;;;6.77;6.10;;;;;;;5.09;100.00;96694.06;5037435;28;20207;-69
2021/11/02 08:47:16;;;;;;;5.73;5.23;;;;;;;6.71;100.00;96683.69;5050218;28;20217;-68
2021/11/02 08:49:46;;;;;;;6.10;5.60;;;;;;;6.66;100.00;96688.63;5049982;28;20218;-69
2021/11/02 08:52:18;;;;;;;6.70;6.10;;;;;;;6.67;100.00;96685.00;5052449;28;20445;-69
2021/11/02 08:54:48;;;;;;;5.23;4.83;;;;;;;6.71;100.00;96690.78;5014222;28;20603;-70
2021/11/02 08:57:17;;;;;;;6.73;5.77;;;;;;;6.57;100.00;96682.59;5050144;28;20211;-68
2021/11/02 08:59:46;;;;;;;6.47;5.83;;;;;;;6.64;100.00;96683.56;5050379;28;20215;-69
2021/11/02 09:02:24;;;;;;;6.20;5.70;;;;;;;6.73;100.00;96688.78;5052128;28;20224;-68
2021/11/02 09:05:00;;;;;;;7.37;5.80;;;;;;;6.87;100.00;96690.69;5052002;28;20226;-69
2021/11/02 09:07:30;;;;;;;6.60;6.03;;;;;;;6.94;100.00;96696.91;5045983;28;20433;-68
2021/11/02 09:10:00;;;;;;;6.97;6.23;;;;;;;7.04;100.00;96690.59;5046997;28;20211;-70
2021/11/02 09:12:32;;;;;;;6.90;6.20;;;;;;;7.15;100.00;96695.47;5012225;28;20231;-67
2021/11/02 09:15:01;;;;;;;8.20;6.33;;;;;;;7.30;100.00;96690.28;5049686;28;20222;-68
2021/11/02 09:17:33;;;;;;;7.60;6.90;;;;;;;7.35;100.00;96692.38;5047029;28;20792;-68
2021/11/02 09:20:03;;;;;;;7.00;6.40;;;;;;;7.26;100.00;96683.72;5050964;28;20207;-69
2021/11/02 09:22:33;;;;;;;6.37;5.87;;;;;;;7.31;100.00;96683.16;5045874;28;20222;-67
2021/11/02 09:25:01;;;;;;;7.20;6.60;;;;;;;7.36;100.00;96673.75;5047016;28;20231;-69
2021/11/02 09:27:30;;;;;;;6.77;6.07;;;;;;;7.52;100.00;96677.25;5010884;28;20203;-69
2021/11/02 09:29:58;;;;;;;7.07;6.43;;;;;;;7.57;100.00;96674.09;5048937;28;20663;-70
2021/11/02 09:32:26;;;;;;;6.90;6.30;;;;;;;7.74;100.00;96672.94;5049227;28;20226;-68
2021/11/02 09:34:55;;;;;;;6.80;6.10;;;;;;;7.91;100.00;96667.53;5052262;28;20713;-70
2021/11/02 09:37:27;;;;;;;5.20;4.80;;;;;;;8.21;100.00;96670.22;5049180;28;20218;-68
2021/11/02 09:39:57;;;;;;;4.87;4.57;;;;;;;8.51;100.00;96667.56;5052384;28;20202;-69
2021/11/02 09:43:07;;;;;;;4.63;4.33;;;;;;;8.57;100.00;96666.03;5011631;28;20222;-68
2021/11/02 09:45:59;;;;;;;4.73;3.97;;;;;;;8.87;100.00;96658.88;5052010;28;20256;-70
2021/11/02 09:49:07;;;;;;;4.30;3.80;;;;;;;9.14;100.00;96661.81;5049488;28;20246;-67
2021/11/02 09:52:10;;;;;;;3.67;3.33;;;;;;;9.42;100.00;96658.41;5050460;28;20426;-69
2021/11/02 09:55:04;;;;;;;3.20;3.00;;;;;;;9.39;100.00;96650.88;5017969;28;20518;-69
2021/11/02 09:58:10;;;;;;;2.77;2.63;;;;;;;9.32;100.00;96637.56;5014091;28;20203;-67
2021/11/02 10:01:06;;;;;;;2.43;2.33;;;;;;;9.38;100.00;96643.94;5050652;28;20210;-68
2021/11/02 10:04:19;;;;;;;2.67;2.47;;;;;;;9.50;100.00;96639.78;5006363;28;20305;-69
2021/11/02 10:07:08;;;;;;;2.40;2.20;;;;;;;9.46;100.00;96642.97;5054852;28;20230;-71
2021/11/02 10:09:39;;;;;;;3.63;2.73;;;;;;;9.33;100.00;96646.34;5052888;28;20203;-71
2021/11/02 10:12:22;;;;;;;1.80;1.70;;;;;;;8.97;100.00;96642.72;5025143;28;20215;-71
2021/11/02 10:15:05;;;;;;;1.67;1.57;;;;;;;8.66;100.00;96641.97;5051689;28;20218;-70
2021/11/02 10:18:08;;;;;;;1.80;1.70;;;;;;;8.75;100.00;96639.22;5050021;28;20222;-71
2021/11/02 10:21:22;;;;;;;2.30;1.40;;;;;;;8.50;100.00;96642.16;5018867;28;20202;-71
2021/11/02 10:24:17;;;;;;;1.13;1.13;;;;;;;8.72;100.00;96647.53;5054066;28;20652;-69
2021/11/02 10:26:56;;;;;;;1.80;1.13;;;;;;;8.74;100.00;96633.13;5050967;28;20226;-71
2021/11/02 10:30:10;;;;;;;1.43;1.33;;;;;;;8.96;100.00;96636.63;5016883;28;20233;-70
2021/11/02 10:32:45;;;;;;;2.43;2.23;;;;;;;9.04;100.00;96638.31;5050631;28;20249;-71
2021/11/02 10:35:26;;;;;;;2.27;1.60;;;;;;;9.15;100.00;96631.72;5055260;28;20210;-70
2021/11/02 10:38:02;;;;;;;1.53;1.43;;;;;;;9.15;100.00;96625.63;5054827;28;20225;-70
2021/11/02 10:40:39;;;;;;;1.50;1.30;;;;;;;9.14;100.00;96622.16;5051741;28;20410;-70
2021/11/02 10:43:49;;;;;;;1.40;1.30;;;;;;;9.29;100.00;96619.44;5052889;28;20309;-71
2021/11/02 10:46:25;;;;;;;3.90;1.67;;;;;;;9.23;100.00;96628.16;5049687;28;20364;-70
2021/11/02 10:49:00;;;;;;;1.40;0.93;;;;;;;9.30;100.00;96625.56;5030829;28;20416;-70
2021/11/02 10:51:39;;;;;;;2.87;1.40;;;;;;;9.17;100.00;96629.72;5050544;28;20233;-69
2021/11/02 10:54:29;;;;;;;1.10;1.00;;;;;;;9.04;100.00;96624.28;5053889;28;20260;-70
2021/11/02 10:57:15;;;;;;;1.80;1.10;;;;;;;9.11;100.00;96617.25;5051578;28;20454;-71
2021/11/02 10:59:49;;;;;;;3.30;1.47;;;;;;;9.00;100.00;96623.84;5051479;28;20211;-70
2021/11/02 11:02:28;;;;;;;1.20;1.20;;;;;;;9.31;100.00;96616.63;5023055;28;20248;-70
2021/11/02 11:04:58;;;;;;;1.20;1.10;;;;;;;9.37;100.00;96623.78;5049928;28;20228;-71
2021/11/02 11:07:27;;;;;;;2.43;0.90;;;;;;;9.43;100.00;96615.09;5053711;28;20233;-70
2021/11/02 11:09:56;;;;;;;1.07;1.07;;;;;;;9.67;100.00;96621.00;5053712;28;20271;-70
2021/11/02 11:12:27;;;;;;;2.77;1.40;;;;;;;9.92;100.00;96620.53;5054545;28;20230;-71
2021/11/02 11:14:59;;;;;;;4.00;1.83;;;;;;;10.27;100.00;96609.94;5053044;28;20199;-72
2021/11/02 11:17:30;;;;;;;1.70;1.70;;;;;;;10.62;100.00;96612.59;5040605;28;20214;-70
2021/11/02 11:20:09;;;;;;;1.20;1.10;;;;;;;11.19;100.00;96612.34;5037494;28;20207;-71
2021/11/02 11:22:40;;;;;;;1.47;1.37;;;;;;;11.11;100.00;96618.63;5050715;28;20234;-69
2021/11/02 11:25:15;;;;;;;1.27;0.93;;;;;;;11.13;100.00;96616.59;5055225;28;20203;-70
2021/11/02 11:27:47;;;;;;;1.73;1.10;;;;;;;11.24;100.00;96611.72;5047154;28;20432;-71
2021/11/02 11:30:17;;;;;;;0.80;0.80;;;;;;;11.23;100.00;96607.44;5053657;28;20678;-70
2021/11/02 11:32:48;;;;;;;2.77;1.10;;;;;;;11.04;100.00;96609.03;5016314;28;21468;-71
2021/11/02 11:35:16;;;;;;;2.13;1.40;;;;;;;10.71;100.00;96608.75;5052382;28;20210;-71
2021/11/02 11:37:45;;;;;;;3.43;1.03;;;;;;;10.80;100.00;96617.34;5049327;28;20956;-70
2021/11/02 11:40:15;;;;;;;1.17;1.13;;;;;;;10.75;100.00;96606.50;5052596;28;20218;-70
2021/11/02 11:42:45;;;;;;;1.10;1.10;;;;;;;11.03;100.00;96602.91;5050647;28;20241;-70
2021/11/02 11:45:17;;;;;;;2.00;0.97;;;;;;;10.76;100.00;96596.72;5054340;28;20294;-71
2021/11/02 11:47:45;;;;;;;2.00;0.90;;;;;;;10.59;100.00;96607.69;5013971;28;20680;-70
2021/11/02 11:50:20;;;;;;;1.47;1.17;;;;;;;10.32;100.00;96610.19;5048360;28;20203;-71
2021/11/02 11:52:51;;;;;;;1.27;1.13;;;;;;;10.19;100.00;96608.28;5050396;28;20312;-70
2021/11/02 11:55:27;;;;;;;1.93;1.27;;;;;;;10.09;100.00;96606.00;5055092;28;20199;-71
2021/11/02 11:58:15;;;;;;;1.20;1.10;;;;;;;10.09;100.00;96605.16;5050306;28;20499;-70
2021/11/02 12:01:09;;;;;;;1.53;0.97;;;;;;;10.29;100.00;96605.28;5050418;28;20414;-70
2021/11/02 12:03:50;;;;;;;2.70;1.03;;;;;;;10.55;100.00;96601.16;5008710;28;20637;-70
2021/11/02 12:06:22;;;;;;;4.20;1.33;;;;;;;10.96;100.00;96597.59;5050306;28;20579;-69
2021/11/02 12:08:58;;;;;;;1.23;1.13;;;;;;;12.11;100.00;96585.16;5039625;28;20625;-71
2021/11/02 12:11:30;;;;;;;1.33;1.23;;;;;;;12.95;100.00;96580.91;5035264;28;20260;-69
2021/11/02 12:14:06;;;;;;;0.90;0.90;;;;;;;13.43;100.00;96580.41;5051423;28;20349;-69
2021/11/02 12:16:38;;;;;;;1.00;1.00;;;;;;;13.26;100.00;96574.78;5050893;28;20234;-69
2021/11/02 12:19:10;;;;;;;1.20;1.10;;;;;;;12.40;100.00;96580.38;5016025;28;20195;-70
2021/11/02 12:21:42;;;;;;;1.13;1.13;;;;;;;12.63;100.00;96572.91;5050033;28;20238;-70
2021/11/02 12:24:13;;;;;;;1.43;1.30;;;;;;;12.96;100.00;96571.91;5039135;28;20420;-69
2021/11/02 12:26:46;;;;;;;1.07;1.07;;;;;;;12.40;100.00;96563.59;5039994;28;20261;-71
2021/11/02 12:29:22;;;;;;;1.87;1.20;;;;;;;12.12;100.00;96570.84;5048929;28;20194;-70
2021/11/02 12:31:58;;;;;;;1.40;1.30;;;;;;;11.79;100.00;96563.75;5051945;28;21265;-69
2021/11/02 12:34:28;;;;;;;2.70;1.10;;;;;;;11.51;100.00;96562.13;5016276;28;21917;-70
2021/11/02 12:36:59;;;;;;;2.03;1.30;;;;;;;11.41;100.00;96562.56;5047515;28;20223;-69
2021/11/02 12:39:30;;;;;;;3.37;1.40;;;;;;;11.26;100.00;96557.47;5041617;28;20211;-70
2021/11/02 12:42:02;;;;;;;2.20;1.43;;;;;;;11.28;100.00;96557.25;5030598;28;20733;-69
2021/11/02 12:44:32;;;;;;;1.47;1.23;;;;;;;11.18;100.00;96570.09;5051040;28;20816;-71
2021/11/02 12:47:02;;;;;;;1.70;1.23;;;;;;;11.19;100.00;96574.38;5046090;28;20599;-69
2021/11/02 12:49:35;;;;;;;2.90;1.17;;;;;;;10.99;100.00;96565.38;5016284;28;20599;-70
2021/11/02 12:52:08;;;;;;;0.90;0.90;;;;;;;10.79;100.00;96572.47;5027986;28;20685;-68
2021/11/02 12:54:37;;;;;;;2.93;1.23;;;;;;;10.49;100.00;96580.75;5014310;28;20423;-71
2021/11/02 12:57:08;;;;;;;1.10;1.00;;;;;;;10.33;100.00;96577.38;5037098;28;20219;-69
2021/11/02 12:59:43;;;;;;;1.37;1.27;;;;;;;10.24;100.00;96578.56;5050590;28;20610;-71
2021/11/02 13:02:19;;;;;;;0.70;0.70;;;;;;;10.02;100.00;96576.00;5036989;28;20621;-70
2021/11/02 13:05:03;;;;;;;2.67;1.60;;;;;;;9.80;100.00;96580.56;5049884;28;20211;-68
2021/11/02 13:07:38;;;;;;;1.87;1.73;;;;;;;9.60;100.00;96604.22;5049922;28;20320;-67
2021/11/02 13:10:17;;;;;;;1.37;1.27;;;;;;;8.97;100.00;96606.56;5012978;28;20756;-67
2021/11/02 13:12:48;;;;;;;1.03;1.03;;;;;;;8.60;100.00;96611.03;5050995;28;20658;-68
2021/11/02 13:15:17;;;;;;;1.23;1.17;;;;;;;8.09;100.00;96609.94;5049105;28;20218;-67
2021/11/02 13:17:49;;;;;;;3.40;1.40;;;;;;;7.91;100.00;96615.59;5052047;28;20222;-70
2021/11/02 13:20:29;;;;;;;2.30;1.37;;;;;;;7.45;100.00;96613.06;5036248;28;20218;-69
2021/11/02 13:22:59;;;;;;;1.77;1.67;;;;;;;7.26;100.00;96615.19;5046862;28;20226;-70
2021/11/02 13:25:36;;;;;;;1.80;1.63;;;;;;;7.14;100.00;96617.44;5016853;28;20435;-69
2021/11/02 13:28:04;;;;;;;2.00;1.90;;;;;;;7.17;100.00;96611.81;5045266;28;20227;-69
2021/11/02 13:30:34;;;;;;;1.80;1.77;;;;;;;7.14;100.00;96614.78;5047368;28;20202;-70
2021/11/02 13:33:12;;;;;;;2.10;2.00;;;;;;;7.07;100.00;96613.88;5049803;28;20222;-68
2021/11/02 13:35:51;;;;;;;2.80;2.60;;;;;;;7.05;100.00;96611.38;5046945;28;20651;-70
2021/11/02 13:38:35;;;;;;;2.53;2.30;;;;;;;7.04;100.00;96616.84;5047907;28;20216;-67
2021/11/02 13:41:10;;;;;;;2.13;2.03;;;;;;;7.00;100.00;96621.63;5013983;28;20635;-69
2021/11/02 13:43:40;;;;;;;1.87;1.77;;;;;;;6.85;100.00;96624.19;5048235;28;20881;-68
2021/11/02 13:46:10;;;;;;;3.23;1.50;;;;;;;6.88;100.00;96620.41;5051421;28;20210;-68
2021/11/02 13:48:38;;;;;;;2.30;1.93;;;;;;;6.93;100.00;96621.50;5050997;28;20516;-69
2021/11/02 13:51:09;;;;;;;2.50;2.17;;;;;;;6.99;100.00;96625.25;5039947;28;20210;-68
2021/11/02 13:53:39;;;;;;;2.63;2.20;;;;;;;7.10;100.00;96631.94;5050209;28;20397;-67
2021/11/02 13:56:08;;;;;;;3.30;2.50;;;;;;;7.12;100.00;96622.06;5015979;28;20217;-71
2021/11/02 13:58:38;;;;;;;3.00;2.70;;;;;;;7.19;100.00;96622.97;5050359;28;20279;-69
2021/11/02 14:01:08;;;;;;;2.87;2.33;;;;;;;7.19;100.00;96625.63;5050740;28;20301;-69
2021/11/02 14:03:42;;;;;;;2.73;2.53;;;;;;;7.18;100.00;96631.06;5047557;28;20454;-68
2021/11/02 14:06:11;;;;;;;3.27;2.47;;;;;;;7.27;100.00;96634.44;5039496;28;20429;-68
2021/11/02 14:08:41;;;;;;;3.93;2.80;;;;;;;7.26;100.00;96628.38;5050723;28;20241;-68
2021/11/02 14:11:22;;;;;;;5.67;2.50;;;;;;;7.34;100.00;96623.03;5018780;28;20222;-68
2021/11/02 14:13:51;;;;;;;2.67;2.47;;;;;;;7.33;100.00;96624.03;5051773;28;20333;-69
2021/11/02 14:16:32;;;;;;;2.17;2.10;;;;;;;7.42;100.00;96624.78;5048601;28;20702;-68
2021/11/02 14:19:01;;;;;;;2.97;2.37;;;;;;;7.44;100.00;96628.06;5049298;28;20203;-70
2021/11/02 14:21:50;;;;;;;4.90;2.50;;;;;;;7.40;100.00;96624.16;5038173;28;20315;-68
2021/11/02 14:24:32;;;;;;;2.67;2.47;;;;;;;7.31;100.00;96630.47;5046193;28;20210;-68
2021/11/02 14:27:02;;;;;;;3.00;2.80;;;;;;;7.27;100.00;96631.81;5012039;28;20230;-68
2021/11/02 14:29:53;;;;;;;2.77;2.50;;;;;;;7.25;100.00;96634.66;5050766;28;20221;-69
2021/11/02 14:32:50;;;;;;;2.07;1.97;;;;;;;7.21;100.00;96634.16;5051760;28;20433;-69
2021/11/02 14:35:46;;;;;;;2.20;2.10;;;;;;;7.30;100.00;96637.56;5050665;28;20286;-68
2021/11/02 14:38:15;;;;;;;2.27;2.17;;;;;;;7.23;100.00;96634.00;5043029;28;20362;-68
2021/11/02 14:40:56;;;;;;;1.87;1.77;;;;;;;7.25;100.00;96634.66;5021968;28;20222;-70
2021/11/02 14:43:29;;;;;;;3.00;2.70;;;;;;;7.29;100.00;96629.81;5047226;28;20347;-67
2021/11/02 14:46:00;;;;;;;2.67;2.47;;;;;;;7.35;100.00;96629.94;5055239;28;20274;-69
2021/11/02 14:48:39;;;;;;;2.37;1.97;;;;;;;7.40;100.00;96632.06;5048565;28;20532;-68
2021/11/02 14:51:08;;;;;;;2.37;2.17;;;;;;;7.45;100.00;96629.72;5052389;28;20693;-68
2021/11/02 14:53:37;;;;;;;3.60;2.43;;;;;;;7.51;100.00;96636.91;5042429;28;20242;-69
2021/11/02 14:56:08;;;;;;;2.03;1.93;;;;;;;7.54;100.00;96635.72;5043159;28;20293;-69
2021/11/02 14:58:47;;;;;;;2.03;1.93;;;;;;;7.55;100.00;96633.91;5023412;28;20978;-70
2021/11/02 15:01:18;;;;;;;2.00;1.90;;;;;;;7.66;100.00;96638.75;5016363;28;20223;-69
2021/11/02 15:03:54;;;;;;;1.90;1.80;;;;;;;7.64;100.00;96636.31;5045321;28;20428;-69
2021/11/02 15:06:27;;;;;;;2.27;2.07;;;;;;;7.62;100.00;96640.94;5057257;28;20211;-69
2021/11/02 15:08:56;;;;;;;3.70;3.40;;;;;;;7.71;100.00;96641.66;5044540;28;20341;-68
2021/11/02 15:11:26;;;;;;;2.20;2.10;;;;;;;7.70;100.00;96637.38;5054163;28;20238;-68
2021/11/02 15:13:55;;;;;;;2.33;2.20;;;;;;;7.80;100.00;96642.41;5052083;28;20875;-69
2021/11/02 15:16:25;;;;;;;2.90;2.70;;;;;;;7.77;100.00;96648.88;5022246;28;20214;-68
2021/11/02 15:18:55;;;;;;;3.03;2.50;;;;;;;7.78;100.00;96645.25;5050339;28;20484;-69
2021/11/02 15:21:30;;;;;;;2.70;2.50;;;;;;;7.79;100.00;96641.59;5054631;28;20230;-69
2021/11/02 15:24:06;;;;;;;2.57;2.37;;;;;;;7.77;100.00;96651.50;5036515;28;20309;-70
2021/11/02 15:26:50;;;;;;;4.27;2.57;;;;;;;7.77;100.00;96640.97;5049947;28;20310;-69
2021/11/02 15:29:20;;;;;;;2.87;2.67;;;;;;;7.70;100.00;96647.94;5053287;28;20757;-67
2021/11/02 15:32:00;;;;;;;2.37;2.17;;;;;;;7.69;100.00;96646.28;5011957;28;21354;-70
2021/11/02 15:34:42;;;;;;;2.73;2.53;;;;;;;7.66;100.00;96642.22;5051501;28;20216;-68
2021/11/02 15:37:12;;;;;;;3.00;2.80;;;;;;;7.58;100.00;96636.19;5053578;28;20211;-69
2021/11/02 15:39:53;;;;;;;2.97;2.77;;;;;;;7.49;100.00;96643.34;5038144;28;20211;-67
2021/11/02 15:42:29;;;;;;;2.47;2.30;;;;;;;7.46;100.00;96641.06;5054139;28;20338;-69
2021/11/02 15:44:59;;;;;;;3.20;2.30;;;;;;;7.40;100.00;96645.25;5049638;28;20651;-70
2021/11/02 15:47:28;;;;;;;2.50;2.40;;;;;;;7.32;100.00;96637.38;5039178;28;20218;-69
2021/11/02 15:49:58;;;;;;;3.27;2.97;;;;;;;7.36;100.00;96646.56;5033786;28;20308;-70
2021/11/02 15:52:28;;;;;;;2.67;2.53;;;;;;;7.30;100.00;96647.28;5038290;28;20222;-69
2021/11/02 15:55:01;;;;;;;3.50;3.30;;;;;;;7.27;100.00;96656.38;5045062;28;20364;-69
2021/11/02 15:57:37;;;;;;;3.57;3.37;;;;;;;7.22;100.00;96648.19;5050495;28;20217;-70
2021/11/02 16:00:07;;;;;;;5.53;5.03;;;;;;;7.19;100.00;96664.31;5054066;28;20202;-68
2021/11/02 16:02:36;;;;;;;5.63;5.13;;;;;;;7.10;100.00;96672.28;5028469;28;20237;-69
2021/11/02 16:05:07;;;;;;;5.37;4.97;;;;;;;7.08;100.00;96668.19;5049212;28;20203;-69
2021/11/02 16:07:35;;;;;;;5.80;4.80;;;;;;;7.02;100.00;96674.97;5035595;28;20214;-69
2021/11/02 16:10:04;;;;;;;6.23;5.30;;;;;;;6.97;100.00;96673.84;5042442;28;20245;-67
2021/11/02 16:12:36;;;;;;;5.80;5.30;;;;;;;6.89;100.00;96680.00;5050141;28;20246;-68
2021/11/02 16:15:12;;;;;;;4.10;3.77;;;;;;;6.88;100.00;96689.69;5049873;28;20670;-69
2021/11/02 16:17:43;;;;;;;5.07;3.87;;;;;;;6.99;100.00;96677.94;5045961;28;20279;-69
2021/11/02 16:20:20;;;;;;;4.20;3.70;;;;;;;6.97;100.00;96694.91;5018835;28;20211;-70
2021/11/02 16:22:51;;;;;;;3.87;3.57;;;;;;;6.90;100.00;96687.69;5045735;28;20430;-69